Terminal Aerodrome Forecast
Issued by NWS Louisville, KY

Home | Current Version | Previous Version | Graphics & Text | Print | Product List | Glossary On
Versions: 1 2 3 4 5 6 7 8 9 10 11 12 13 14
000
FTUS43 KLMK 231120
TAFLEX
TAF
KLEX 231120Z 2312/2412 23017G25KT P6SM BKN040
     FM231500 23017G25KT P6SM OVC025
     FM240100 26014G20KT P6SM OVC022
     FM240300 27010KT P6SM BKN025=

USA.gov is the U.S. government's official web portal to all federal, state and local government web resources and services.